Leadville, CO

11:55 PM MDT on July 06, 2015 (GMT -0600)
Lake County | | Change Station
CLOSE
Current Station
Airport
Location: Leadville,
Elevation: 9928 ft
Nearby Weather Stations

Elev 9928 ft 39.23 °N, 106.32 °W | Updated 2 minutes ago

Partly Cloudy
Partly Cloudy
47 °F
Feels Like 47 °F
N
5
Wind Variable Wind from SSW

Today
High -- | Low -- °F
--% Chance of Precip.
Yesterday
High -- | Low -- °F
Precip. -- in
5:44 AM 8:34 PM
Waning Gibbous, 68% visible
Pressure 30.00 in
Visibility 10.0 miles
Clouds Mostly Cloudy 500 ft
Mostly Cloudy 1100 ft
Overcast 1600 ft
Dew Point 47 °F
Humidity 100%
Rainfall 0.01 in
Snow Depth Not available.
UV 0 out of 12
Pollen .60 out of 12
Air Quality Not available.
Flu Activity Not available.
METAR KLXV 070553Z AUTO 20004KT 10SM BKN005 BKN011 OVC016 08/08 A3047 RMK AO2 CIG 003V008 SLP158 T00830083 10144 20083 50006

More Conditions Fewer Conditions

Pressure 30.00 in
Visibility 10.0 miles
Clouds Mostly Cloudy 500 ft
Mostly Cloudy 1100 ft
Overcast 1600 ft
Dew Point 47 °F
Humidity 100%
Rainfall 0.01 in
Snow Depth Not available.
UV 0 out of 12
Pollen .60 out of 12
Air Quality Not available.
Flu Activity Not available.
METAR KLXV 070553Z AUTO 20004KT 10SM BKN005 BKN011 OVC016 08/08 A3047 RMK AO2 CIG 003V008 SLP158 T00830083 10144 20083 50006

More Conditions Fewer Conditions

10-Day Weather Forecast

×

Almanac

Astronomy

Jul. 06, 2015 Rise Set
Actual Time
Civil Twilight
Nautical Twilight
Astronomical Twilight
Moon
Length of Visible Light
Length of Day
Tomorrow will be .
, % of the Moon is Illuminated

Today's Extremes

State Highs State Lows

Community

WunderPhotos

Upload Photos

1,835,733 photos uploaded!

WunderBlogs® & News

Nearby

Air Quality

  Air Quality AQ Index Pollutant
Not available.

Snow Depth

Station Depth Elevation

Earthquake Activity

City Distance Mag. Time & Date
Minimum magnitude displayed is 2.5.

Coastal Water Temperatures

Place Temperature

Stations

Nearby Weather Stations

Station Location Temp. Windchill Dew Point Humidity Wind Precip. Elev Updated Type